Aeroporto :
LOGIN :

Iscrizione | Disclaimer

   EN    FR    IT 

 










Sommario :    VFR   VFR Marginale   IFR   IFR Intensivo   IFR Molto Intensivo
Visibilità : 
Base nubi : 
>= 8 km
>= 3000ft
5 / 8 km
1000 / 3000 ft
1500m / 5 km
500 / 1000 ft
800 / 1500m
200 / 500 ft
< 800m
< 200 ft
Simboli :   Temporali  Nebbia  Neve Forte  Precipitazioni Forti  Vento > 20 kt
SIGMETs :   Varie  Temporali  Ghiacco  Turbolenza  Onda orograficha  Ceneri Vulcaniche






- Altitudine del aeroporto : 135 ft
- Codice IATA : BOJ


LBBG - Burgas

ULTIMO METAR :
  • 291300Z 02010KT 9999 FEW030 19/12 Q1015 NOSIG

METARs OBSOLETI :
  • 291230Z 01010KT 9999 FEW030 20/12 Q1015 NOSIG
  • 291200Z 35012KT 9999 FEW030 20/13 Q1015 NOSIG
  • 291130Z 01011KT 9999 FEW030 20/13 Q1015 NOSIG
  • 291100Z 36010KT 340V040 9999 FEW033 20/13 Q1015 NOSIG
  • 291030Z 34011KT 9999 FEW033 20/13 Q1016 NOSIG

TAF TAF LBBG
Valido dal 29 a 12 ore il 30 a 12 ore UTC


291100Z 2912/3012 35010KT 9999 SCT030 SCT050
BECMG 2912/2914 08010KT SCT010 BKN030
BECMG 2918/2920 VRB04KT
BECMG 3000/3002 33010KT SCT020 OVC030
TEMPO 3002/3012 3000 RA SCT007 OVC020
PROB40 3002/3007 1500 TSRA SCT030CB



MetMap, La meteo Aeronautica in un colpo d'occhio ! - Copyright ORBIFLY Dicembre 2007 - Disclaimer

ORBIFLY MET'MAP TEAM :

Programmazione e sviluppo : Alexandra Zaïnal
Concezione : Baudouin d'Aumeries
Aiuto per la programmazione : Marc-Olivier Méhu
Supporto tecnico e logistico : Manuel Goepfert
Aiuto per la traduzione : Arnaldo La Scala

Contatto : metmap@orbifly.com




FONTI E CREDITI :

   NOAA